Time;durP1;ratioP1;P1;durP2;ratioP2;P2;SDS_P1;SDS_P2;PMS_P1;PMS_P2;Temp;Humidity;BMP_temperature;BMP_pressure;BME280_temperature;BME280_humidity;BME280_pressure;Samples;Min_cycle;Max_cycle;Signal;HPM_P1;HPM_P2
2023/05/15 00:00:43;;;;;;;;;55.00;43.33;;;;;13.80;74.25;101413.19;5036421;28;45351;-66
2023/05/15 00:03:09;;;;;;;;;61.33;44.67;;;;;13.86;74.58;101413.03;5036836;27;45479;-66
2023/05/15 00:05:34;;;;;;;;;59.67;45.67;;;;;13.79;73.96;101400.88;5036363;28;46612;-66
2023/05/15 00:08:00;;;;;;;;;58.00;47.33;;;;;13.77;74.63;101400.06;5036342;28;45343;-66
2023/05/15 00:10:25;;;;;;;;;59.67;44.33;;;;;13.82;74.55;101403.44;5036502;28;45214;-66
2023/05/15 00:12:50;;;;;;;;;57.67;46.00;;;;;13.78;74.20;101390.31;5036556;28;45581;-67
2023/05/15 00:15:16;;;;;;;;;65.00;48.00;;;;;13.79;73.54;101398.22;5036164;28;46567;-66
2023/05/15 00:17:41;;;;;;;;;58.67;47.33;;;;;13.75;74.92;101399.19;5036261;28;45205;-67
2023/05/15 00:20:08;;;;;;;;;59.67;46.00;;;;;13.71;74.97;101397.56;5036349;28;45967;-67
2023/05/15 00:22:34;;;;;;;;;63.33;49.00;;;;;13.64;75.34;101383.59;5036702;27;45362;-67
2023/05/15 00:24:59;;;;;;;;;58.33;46.33;;;;;13.68;75.03;101397.63;5035841;28;45233;-67
2023/05/15 00:27:25;;;;;;;;;63.67;48.33;;;;;13.65;74.53;101388.00;5035419;28;45304;-66
2023/05/15 00:29:50;;;;;;;;;63.00;48.67;;;;;13.58;74.94;101383.78;5036399;27;45772;-67
2023/05/15 00:32:16;;;;;;;;;61.33;47.00;;;;;13.62;75.54;101387.19;5036412;28;45298;-67
2023/05/15 00:34:41;;;;;;;;;58.00;46.67;;;;;13.60;74.79;101391.66;5035939;27;46322;-67
2023/05/15 00:37:07;;;;;;;;;63.67;47.67;;;;;13.57;74.88;101409.34;5036031;28;45643;-66
2023/05/15 00:39:32;;;;;;;;;62.00;48.00;;;;;13.46;75.16;101389.34;5036193;27;45330;-67
2023/05/15 00:41:59;;;;;;;;;66.33;49.33;;;;;13.52;76.35;101397.13;5036302;28;45402;-66
2023/05/15 00:44:25;;;;;;;;;63.00;48.33;;;;;13.41;76.70;101385.03;5035860;28;45606;-66
2023/05/15 00:46:53;;;;;;;;;59.00;46.00;;;;;13.39;76.14;101365.69;5047860;27;46120;-67
2023/05/15 00:49:21;;;;;;;;;62.67;48.67;;;;;13.43;76.85;101374.41;5015905;28;45272;-66
2023/05/15 00:51:46;;;;;;;;;63.00;47.33;;;;;13.46;76.29;101378.75;5016048;28;45309;-67
2023/05/15 00:54:12;;;;;;;;;70.33;51.00;;;;;13.35;76.77;101373.75;5015773;28;45360;-67
2023/05/15 00:56:38;;;;;;;;;60.67;47.33;;;;;13.34;76.71;101371.97;5015817;28;45398;-67
2023/05/15 00:59:05;;;;;;;;;68.33;49.00;;;;;13.36;77.35;101381.66;5015823;28;45428;-66
2023/05/15 01:01:33;;;;;;;;;66.67;50.33;;;;;13.23;77.01;101367.81;5016135;28;45413;-66
2023/05/15 01:04:00;;;;;;;;;67.00;50.67;;;;;13.27;77.39;101386.25;5015529;28;47135;-66
2023/05/15 01:06:25;;;;;;;;;65.33;50.67;;;;;13.22;78.24;101381.94;5015626;28;45388;-66
2023/05/15 01:08:55;;;;;;;;;59.33;47.33;;;;;13.20;77.36;101372.28;5015760;28;45272;-66
2023/05/15 01:11:24;;;;;;;;;65.33;49.00;;;;;13.13;78.35;101370.69;5015848;28;45380;-66
2023/05/15 01:13:49;;;;;;;;;59.67;47.33;;;;;13.20;78.32;101373.19;4998571;28;46705;-66
2023/05/15 01:16:15;;;;;;;;;59.67;45.67;;;;;13.19;78.61;101366.13;4995676;28;45422;-66
2023/05/15 01:18:40;;;;;;;;;68.00;52.00;;;;;13.19;79.40;101365.28;4995858;28;46046;-66
2023/05/15 01:21:08;;;;;;;;;63.33;49.00;;;;;13.21;79.22;101366.09;4996335;28;45403;-66
2023/05/15 01:24:11;;;;;;;;;61.00;50.00;;;;;13.24;78.98;101360.75;4995547;28;46187;-66
2023/05/15 01:27:09;;;;;;;;;64.67;48.33;;;;;13.27;79.35;101359.81;4995558;28;45318;-66
2023/05/15 01:29:40;;;;;;;;;66.67;49.00;;;;;13.31;79.99;101361.47;5056263;28;45409;-66
2023/05/15 01:32:10;;;;;;;;;61.67;46.33;;;;;13.25;79.47;101343.97;5056417;28;45407;-67
2023/05/15 01:34:53;;;;;;;;;65.33;49.00;;;;;13.23;79.40;101340.50;5055993;28;46377;-66
2023/05/15 01:37:24;;;;;;;;;65.67;49.00;;;;;13.27;79.96;101346.56;5056234;28;45498;-66
2023/05/15 01:39:54;;;;;;;;;61.67;48.67;;;;;13.35;80.35;101357.88;5055159;28;45445;-66
2023/05/15 01:42:26;;;;;;;;;61.00;46.33;;;;;13.30;80.14;101357.97;5039474;28;45365;-66
2023/05/15 01:44:54;;;;;;;;;63.00;47.00;;;;;13.26;79.86;101344.81;5056698;28;46602;-67
2023/05/15 01:47:26;;;;;;;;;58.33;45.67;;;;;13.35;78.82;101349.94;5076394;28;45425;-67
2023/05/15 01:49:55;;;;;;;;;61.67;45.00;;;;;13.28;79.95;101356.25;5076109;28;45367;-67
2023/05/15 01:52:28;;;;;;;;;60.33;47.00;;;;;13.28;80.26;101364.19;5076429;28;45504;-66
2023/05/15 01:54:54;;;;;;;;;62.67;47.33;;;;;13.19;80.14;101352.06;5076128;28;46064;-67
2023/05/15 01:57:21;;;;;;;;;66.33;47.00;;;;;13.12;80.83;101346.03;5076146;28;45312;-66
2023/05/15 01:59:49;;;;;;;;;50.67;41.00;;;;;13.18;80.21;101356.47;5075992;28;45369;-66
2023/05/15 02:02:15;;;;;;;;;60.67;46.00;;;;;13.20;80.24;101356.41;5076465;28;45446;-67
2023/05/15 02:04:44;;;;;;;;;61.67;46.00;;;;;13.10;80.21;101349.63;5057947;28;46121;-67
2023/05/15 02:07:09;;;;;;;;;54.00;42.67;;;;;13.09;80.88;101348.75;5015075;28;45363;-66
2023/05/15 02:09:35;;;;;;;;;58.67;44.33;;;;;13.11;80.95;101352.22;5015008;28;45348;-67
2023/05/15 02:12:02;;;;;;;;;57.67;44.33;;;;;13.13;80.96;101357.47;5015303;28;45297;-67
2023/05/15 02:14:28;;;;;;;;;59.00;47.00;;;;;13.07;80.29;101343.50;5014880;28;46332;-66
2023/05/15 02:16:54;;;;;;;;;59.67;46.33;;;;;13.00;81.58;101333.13;5046767;28;45468;-66
2023/05/15 02:19:20;;;;;;;;;58.67;44.67;;;;;13.03;81.59;101347.13;5014886;28;45448;-66
2023/05/15 02:21:46;;;;;;;;;56.50;45.00;;;;;12.96;81.64;101321.75;5015166;28;45328;-66
2023/05/15 02:24:11;;;;;;;;;58.33;45.00;;;;;13.06;81.88;101347.03;5014601;28;45333;-67
2023/05/15 02:26:58;;;;;;;;;55.67;41.67;;;;;13.06;80.66;101344.41;5014819;28;45331;-67
2023/05/15 02:29:48;;;;;;;;;53.00;42.67;;;;;13.02;81.49;101340.09;5014920;28;45421;-66
2023/05/15 02:32:38;;;;;;;;;54.00;42.33;;;;;12.96;81.36;101334.09;5014801;28;45353;-67
2023/05/15 02:35:21;;;;;;;;;58.33;44.00;;;;;12.96;79.73;101336.75;5014368;28;45445;-67
2023/05/15 02:37:51;;;;;;;;;57.33;43.00;;;;;12.85;80.88;101343.16;5014544;28;45325;-66
2023/05/15 02:40:19;;;;;;;;;53.33;41.33;;;;;12.79;81.42;101332.69;5014561;28;45249;-66
2023/05/15 02:42:46;;;;;;;;;55.67;44.33;;;;;12.75;81.73;101331.03;5014690;28;45235;-66
2023/05/15 02:45:11;;;;;;;;;58.67;45.67;;;;;12.69;82.54;101320.59;5018131;28;46042;-66
2023/05/15 02:47:38;;;;;;;;;53.00;42.67;;;;;12.76;82.49;101327.47;5033934;28;45371;-66
2023/05/15 02:50:05;;;;;;;;;54.33;41.33;;;;;12.71;82.34;101313.50;5033993;28;45338;-66
2023/05/15 02:52:32;;;;;;;;;50.00;40.33;;;;;12.72;81.75;101320.50;5034474;28;45451;-67
2023/05/15 02:54:57;;;;;;;;;49.67;40.00;;;;;12.71;81.28;101324.94;5033994;28;45814;-67
2023/05/15 02:57:23;;;;;;;;;46.00;37.33;;;;;12.67;82.05;101325.06;5026510;28;45545;-66
2023/05/15 02:59:48;;;;;;;;;50.00;41.00;;;;;12.65;82.24;101319.81;5024857;28;45371;-66
2023/05/15 03:02:14;;;;;;;;;53.33;41.33;;;;;12.56;82.62;101303.28;5014768;28;45280;-66
2023/05/15 03:04:39;;;;;;;;;51.00;42.33;;;;;12.65;82.32;101326.84;5014208;28;46291;-66
2023/05/15 03:07:05;;;;;;;;;56.67;41.33;;;;;12.58;81.71;101317.34;5014131;28;45245;-66
2023/05/15 03:09:30;;;;;;;;;57.33;41.33;;;;;12.52;81.26;101321.84;4996710;28;45281;-66
2023/05/15 03:11:55;;;;;;;;;50.67;39.00;;;;;12.33;82.40;101296.75;5014286;28;45331;-66
2023/05/15 03:14:21;;;;;;;;;55.00;41.67;;;;;12.43;82.95;101322.03;5014030;28;46327;-66
2023/05/15 03:16:46;;;;;;;;;51.00;38.00;;;;;12.48;82.94;101325.44;5013944;28;45315;-67
2023/05/15 03:19:11;;;;;;;;;56.00;39.67;;;;;12.44;82.45;101325.53;5014119;28;45627;-66
2023/05/15 03:21:37;;;;;;;;;56.00;39.67;;;;;12.45;82.44;101325.50;5014361;28;45302;-66
2023/05/15 03:24:02;;;;;;;;;54.33;40.67;;;;;12.47;82.05;101328.97;5013692;28;45961;-67
2023/05/15 03:26:27;;;;;;;;;56.67;44.33;;;;;12.43;82.41;101319.41;5013768;28;45428;-67
2023/05/15 03:28:53;;;;;;;;;52.00;40.67;;;;;12.36;82.72;101305.44;5014035;28;45522;-66
2023/05/15 03:31:19;;;;;;;;;57.67;44.00;;;;;12.38;82.98;101313.34;5013962;28;45502;-66
2023/05/15 03:33:48;;;;;;;;;58.67;48.00;;;;;12.47;83.08;101328.13;5013721;28;45375;-66
2023/05/15 03:36:14;;;;;;;;;61.33;45.67;;;;;12.40;83.05;101302.75;5013581;28;45267;-66
2023/05/15 03:38:40;;;;;;;;;60.67;44.33;;;;;12.45;83.15;101309.66;5013788;28;45252;-66
2023/05/15 03:41:05;;;;;;;;;55.67;44.00;;;;;12.48;81.95;101309.59;5013857;28;45343;-66
2023/05/15 03:43:30;;;;;;;;;55.33;45.00;;;;;12.43;83.14;101305.31;5013495;28;45428;-66
2023/05/15 03:45:58;;;;;;;;;57.67;45.00;;;;;12.42;82.72;101312.38;5013261;28;45333;-67
2023/05/15 03:48:23;;;;;;;;;63.67;47.67;;;;;12.48;82.58;101319.31;5013629;28;45458;-67
2023/05/15 03:50:48;;;;;;;;;55.00;44.00;;;;;12.42;82.95;101320.31;5013676;28;45302;-66
2023/05/15 03:53:14;;;;;;;;;58.00;44.67;;;;;12.40;82.86;101314.16;5013298;28;45911;-67
2023/05/15 03:55:39;;;;;;;;;59.00;42.67;;;;;12.39;83.10;101317.72;5013436;28;45400;-66
2023/05/15 03:58:05;;;;;;;;;58.33;45.00;;;;;12.34;82.87;101312.56;5013658;28;45391;-67
2023/05/15 04:00:30;;;;;;;;;55.00;44.00;;;;;12.33;83.36;101309.94;5013626;28;45580;-66
2023/05/15 04:02:56;;;;;;;;;58.67;44.67;;;;;12.07;83.67;101262.94;5014872;28;46220;-66
2023/05/15 04:05:21;;;;;;;;;56.33;45.33;;;;;12.24;82.99;101295.13;5016482;28;45216;-66
2023/05/15 04:07:46;;;;;;;;;53.67;41.67;;;;;12.29;83.80;101309.13;5016565;28;45422;-66
2023/05/15 04:10:12;;;;;;;;;55.00;43.33;;;;;12.23;84.27;101296.06;5016725;28;45218;-66
2023/05/15 04:12:37;;;;;;;;;50.00;42.67;;;;;12.30;84.67;101307.34;5016298;28;46266;-66
2023/05/15 04:15:29;;;;;;;;;54.33;41.33;;;;;12.34;82.89;101312.56;5016529;28;45287;-66
2023/05/15 04:17:55;;;;;;;;;56.00;43.00;;;;;12.28;84.14;101299.44;5014370;28;45291;-66
2023/05/15 04:20:22;;;;;;;;;57.67;42.67;;;;;12.31;84.08;101306.44;5016472;28;45399;-66
2023/05/15 04:22:48;;;;;;;;;56.67;44.00;;;;;12.37;84.10;101322.16;5016176;28;45506;-67
2023/05/15 04:25:13;;;;;;;;;52.33;43.33;;;;;12.32;83.75;101303.78;5016152;28;45348;-66
2023/05/15 04:27:40;;;;;;;;;58.67;42.33;;;;;12.39;84.54;101304.53;5016323;28;45429;-66
2023/05/15 04:30:06;;;;;;;;;56.33;42.33;;;;;12.35;84.65;101303.69;5016326;28;45403;-66
2023/05/15 04:32:32;;;;;;;;;58.67;44.33;;;;;12.35;84.56;101300.19;5015784;27;46561;-68
2023/05/15 04:34:59;;;;;;;;;53.33;43.00;;;;;12.43;84.30;101300.91;5015958;28;45410;-69
2023/05/15 04:37:25;;;;;;;;;62.33;46.00;;;;;12.45;84.27;101304.38;5016324;28;45284;-69
2023/05/15 04:39:50;;;;;;;;;49.00;40.00;;;;;12.50;84.29;101315.72;5016199;28;45465;-69
2023/05/15 04:42:15;;;;;;;;;59.67;45.67;;;;;12.51;84.82;101314.81;5015967;28;46302;-68
2023/05/15 04:44:41;;;;;;;;;58.00;44.33;;;;;12.49;84.38;101305.16;5016015;28;45315;-69
2023/05/15 04:47:07;;;;;;;;;51.33;40.33;;;;;12.47;84.09;101296.41;5015733;28;45241;-68
2023/05/15 04:49:32;;;;;;;;;60.00;46.00;;;;;12.40;84.53;101286.91;5016207;28;45388;-69
2023/05/15 04:51:57;;;;;;;;;56.67;43.00;;;;;12.51;84.56;101298.97;5015783;28;46431;-69
2023/05/15 04:54:23;;;;;;;;;55.00;41.67;;;;;12.51;84.12;101287.53;5015799;28;45230;-69
2023/05/15 04:56:48;;;;;;;;;60.67;45.00;;;;;12.60;84.36;101304.94;5016249;28;45628;-68
2023/05/15 04:59:14;;;;;;;;;58.67;44.00;;;;;12.56;84.48;101295.34;5016086;28;45457;-69
2023/05/15 05:01:40;;;;;;;;;57.33;44.67;;;;;12.63;84.11;101305.75;5015383;28;46516;-69
2023/05/15 05:04:05;;;;;;;;;60.00;45.00;;;;;12.44;84.44;101283.28;5015628;28;45182;-69
2023/05/15 05:06:30;;;;;;;;;57.67;44.00;;;;;12.66;84.33;101310.09;5015887;28;45441;-69
2023/05/15 05:08:56;;;;;;;;;50.33;39.00;;;;;12.67;84.08;101309.19;5015970;28;45369;-69
2023/05/15 05:11:22;;;;;;;;;61.67;46.67;;;;;12.65;84.43;101308.34;5015505;28;45861;-69
2023/05/15 05:13:48;;;;;;;;;49.33;37.67;;;;;12.69;83.40;101310.91;5015389;28;45372;-69
2023/05/15 05:16:13;;;;;;;;;47.00;38.33;;;;;12.66;84.37;101313.63;5015728;28;45307;-68
2023/05/15 05:18:38;;;;;;;;;49.67;38.67;;;;;12.70;83.88;101315.25;5015616;28;45318;-68
2023/05/15 05:21:04;;;;;;;;;46.00;36.00;;;;;12.73;83.06;101311.69;5015625;28;46480;-69
2023/05/15 05:23:30;;;;;;;;;53.00;42.00;;;;;12.76;84.46;101313.41;5015436;28;45361;-69
2023/05/15 05:25:55;;;;;;;;;50.67;39.00;;;;;12.73;84.87;101297.63;5015842;28;45347;-67
2023/05/15 05:28:22;;;;;;;;;57.00;43.00;;;;;12.81;85.33;101304.47;5015745;28;45422;-68
2023/05/15 05:30:48;;;;;;;;;56.00;41.67;;;;;12.84;86.10;101307.03;5015276;28;45449;-69
2023/05/15 05:33:13;;;;;;;;;49.33;38.67;;;;;12.82;86.24;101286.81;5015348;28;45271;-69
2023/05/15 05:35:39;;;;;;;;;51.33;38.00;;;;;12.78;86.24;101291.34;5015309;28;45406;-69
2023/05/15 05:38:04;;;;;;;;;50.00;39.00;;;;;12.80;84.62;101275.44;5015799;28;45429;-69
2023/05/15 05:40:30;;;;;;;;;47.33;37.00;;;;;12.74;86.16;101275.59;5015265;28;46306;-69
2023/05/15 05:43:02;;;;;;;;;50.00;38.67;;;;;12.89;86.22;101302.53;5015145;28;45486;-69
2023/05/15 05:45:28;;;;;;;;;53.67;39.00;;;;;12.94;86.37;101305.06;5015536;28;45317;-68
2023/05/15 05:47:56;;;;;;;;;41.33;32.33;;;;;12.96;86.09;101303.22;5015132;28;45238;-69
2023/05/15 05:50:22;;;;;;;;;51.33;35.33;;;;;12.96;86.57;101287.38;5015008;28;45393;-69
2023/05/15 05:52:48;;;;;;;;;41.67;32.67;;;;;13.06;86.74;101303.88;5015187;28;45492;-69
2023/05/15 05:55:13;;;;;;;;;48.67;36.33;;;;;13.07;86.26;101293.28;5015249;28;45929;-66
2023/05/15 05:57:39;;;;;;;;;46.67;35.67;;;;;13.03;85.98;101277.53;5015537;28;45484;-66
2023/05/15 06:00:09;;;;;;;;;49.67;37.00;;;;;13.15;85.53;101303.66;5014718;28;47453;-66
2023/05/15 06:02:36;;;;;;;;;42.00;33.00;;;;;13.21;85.97;101303.50;5020849;28;45254;-66
2023/05/15 06:05:01;;;;;;;;;37.67;31.00;;;;;13.17;86.20;101300.97;5103968;27;45328;-66
2023/05/15 06:07:27;;;;;;;;;44.00;33.33;;;;;13.19;85.60;101294.75;5035078;27;45306;-67
2023/05/15 06:09:52;;;;;;;;;42.33;35.33;;;;;13.26;86.33;101299.88;5033968;28;45589;-67
2023/05/15 06:12:18;;;;;;;;;42.00;33.67;;;;;13.29;86.07;101305.06;5034777;28;45302;-66
2023/05/15 06:14:43;;;;;;;;;46.33;35.33;;;;;13.31;85.75;101311.22;5034764;28;45454;-69
2023/05/15 06:17:09;;;;;;;;;48.33;38.00;;;;;13.25;86.39;101296.38;5035109;28;45574;-69
2023/05/15 06:19:34;;;;;;;;;46.33;36.00;;;;;13.28;85.38;101296.28;5033357;28;45979;-67
2023/05/15 06:21:59;;;;;;;;;46.00;36.33;;;;;13.10;85.97;101268.53;5034556;28;45320;-67
2023/05/15 06:24:25;;;;;;;;;45.67;35.67;;;;;13.31;86.35;101305.94;5034003;28;45336;-67
2023/05/15 06:26:51;;;;;;;;;53.67;41.00;;;;;13.39;86.45;101317.22;5034515;27;45317;-67
2023/05/15 06:29:16;;;;;;;;;46.00;38.33;;;;;13.36;86.33;101307.59;5034366;27;46318;-67
2023/05/15 06:31:42;;;;;;;;;44.33;36.67;;;;;13.39;86.62;101306.66;5034264;28;45286;-67
2023/05/15 06:34:07;;;;;;;;;40.67;33.33;;;;;13.48;86.68;101321.41;5034483;27;45392;-67
2023/05/15 06:36:32;;;;;;;;;51.67;41.67;;;;;13.47;86.50;101312.59;5034797;28;45442;-66
2023/05/15 06:38:58;;;;;;;;;52.67;38.67;;;;;13.44;85.60;101296.78;5034328;28;46145;-66
2023/05/15 06:41:23;;;;;;;;;54.33;36.00;;;;;13.46;86.38;101304.69;5034335;27;45354;-67
2023/05/15 06:43:48;;;;;;;;;49.33;37.00;;;;;13.53;86.19;101317.72;5034503;28;45711;-67
2023/05/15 06:46:15;;;;;;;;;47.00;35.67;;;;;13.45;86.31;101298.53;5034527;28;45360;-67
2023/05/15 06:48:41;;;;;;;;;48.33;37.33;;;;;13.48;86.63;101298.47;5034081;28;46287;-67
2023/05/15 06:51:06;;;;;;;;;49.33;38.33;;;;;13.61;86.58;101308.72;5034223;28;45332;-67
2023/05/15 06:53:32;;;;;;;;;43.00;32.00;;;;;13.63;86.37;101312.19;5034437;28;45318;-66
2023/05/15 06:55:57;;;;;;;;;48.67;33.67;;;;;13.69;86.32;101320.81;5034537;28;45396;-66
2023/05/15 06:58:23;;;;;;;;;46.67;35.00;;;;;13.72;86.54;101317.25;5034296;28;46552;-67
2023/05/15 07:00:48;;;;;;;;;39.00;32.33;;;;;13.73;86.26;101313.69;5034150;28;45357;-67
2023/05/15 07:03:15;;;;;;;;;49.00;35.33;;;;;13.72;85.93;101325.19;5034084;28;45449;-67
2023/05/15 07:05:41;;;;;;;;;50.67;37.67;;;;;13.73;86.44;101317.19;5034484;27;45449;-66
2023/05/15 07:08:06;;;;;;;;;52.33;39.00;;;;;13.82;86.33;101324.03;5033904;27;45741;-67
2023/05/15 07:10:32;;;;;;;;;46.33;35.33;;;;;13.72;85.35;101304.91;5033960;28;45240;-69
2023/05/15 07:12:57;;;;;;;;;47.33;35.33;;;;;13.80;85.03;101315.25;5034174;28;45258;-68
2023/05/15 07:15:22;;;;;;;;;44.67;33.00;;;;;13.83;86.13;101319.63;5034416;27;45292;-68
2023/05/15 07:17:48;;;;;;;;;37.33;30.33;;;;;13.60;86.24;101278.75;5034033;27;46480;-68
2023/05/15 07:20:13;;;;;;;;;43.67;34.33;;;;;13.87;86.41;101322.13;5033798;27;45343;-69
2023/05/15 07:22:39;;;;;;;;;41.33;33.33;;;;;13.88;85.68;101318.59;5033935;28;45789;-68
2023/05/15 07:25:05;;;;;;;;;41.00;33.33;;;;;13.87;85.76;101311.53;5034074;28;45154;-68
2023/05/15 07:27:30;;;;;;;;;47.33;35.00;;;;;13.97;85.85;101320.09;5033723;27;47530;-69
2023/05/15 07:29:56;;;;;;;;;46.00;34.00;;;;;13.93;85.61;101327.25;5033643;28;45303;-69
2023/05/15 07:32:21;;;;;;;;;63.00;46.33;;;;;13.92;86.06;101320.22;5033961;28;45391;-69
2023/05/15 07:34:46;;;;;;;;;45.33;33.67;;;;;13.96;86.26;101317.50;5033930;27;45426;-69
2023/05/15 07:37:12;;;;;;;;;40.00;33.33;;;;;13.93;87.10;101316.66;5035553;28;45390;-69
2023/05/15 07:39:37;;;;;;;;;39.67;32.00;;;;;13.87;86.35;101305.38;5037025;28;45404;-69
2023/05/15 07:42:02;;;;;;;;;39.00;31.33;;;;;13.90;87.26;101305.31;5036840;28;45305;-68
2023/05/15 07:44:28;;;;;;;;;44.00;32.33;;;;;13.92;88.13;101311.41;5036749;28;45429;-68
2023/05/15 07:46:55;;;;;;;;;39.00;32.00;;;;;13.90;87.18;101306.16;5036354;27;45528;-68
2023/05/15 07:49:20;;;;;;;;;39.00;30.00;;;;;13.96;88.22;101310.41;5036470;28;45309;-68
2023/05/15 07:51:47;;;;;;;;;33.00;28.33;;;;;13.98;87.94;101311.22;5036779;27;45539;-68
2023/05/15 07:54:12;;;;;;;;;36.00;27.00;;;;;13.99;88.70;101317.41;5036960;28;45222;-68
2023/05/15 07:56:38;;;;;;;;;34.67;27.00;;;;;13.91;88.91;101294.66;5036421;28;46260;-68
2023/05/15 07:59:03;;;;;;;;;29.67;25.33;;;;;14.01;87.92;101307.63;5036583;28;45192;-69
2023/05/15 08:01:28;;;;;;;;;28.67;24.00;;;;;13.98;89.33;101307.72;5036602;28;45338;-69
2023/05/15 08:03:53;;;;;;;;;32.00;26.33;;;;;13.92;89.33;101293.72;5036818;28;45335;-69
2023/05/15 08:06:19;;;;;;;;;29.33;28.67;;;;;13.89;90.70;101288.53;5036281;28;45469;-69
2023/05/15 08:08:44;;;;;;;;;35.33;27.67;;;;;13.76;89.88;101258.88;5036433;28;45528;-68
2023/05/15 08:11:10;;;;;;;;;33.00;28.00;;;;;14.03;90.30;101303.16;5036353;28;45294;-68
2023/05/15 08:13:35;;;;;;;;;32.33;28.00;;;;;14.02;91.28;101299.66;5036731;28;45767;-69
2023/05/15 08:16:00;;;;;;;;;26.67;24.33;;;;;14.09;90.14;101310.94;5036378;28;47027;-69
2023/05/15 08:18:26;;;;;;;;;25.67;20.00;;;;;14.04;89.91;101308.44;5036043;28;45337;-68
2023/05/15 08:20:51;;;;;;;;;30.67;22.67;;;;;14.02;89.95;101309.38;5036376;28;45309;-68
2023/05/15 08:23:16;;;;;;;;;17.67;16.33;;;;;14.01;90.22;101303.19;5036560;28;45367;-68
2023/05/15 08:25:42;;;;;;;;;23.33;19.67;;;;;14.03;89.34;101308.44;5036254;28;46344;-69
2023/05/15 08:28:07;;;;;;;;;25.00;20.00;;;;;14.08;89.83;101317.16;5018674;27;45468;-68
2023/05/15 08:30:33;;;;;;;;;24.00;22.00;;;;;14.10;90.44;101316.19;5036100;28;45354;-69
2023/05/15 08:32:58;;;;;;;;;22.00;20.00;;;;;14.13;90.66;101322.31;5036414;28;45352;-68
2023/05/15 08:35:23;;;;;;;;;24.33;20.00;;;;;14.09;90.66;101310.94;5035948;28;45532;-68
2023/05/15 08:37:49;;;;;;;;;26.67;23.00;;;;;14.15;89.86;101318.72;5035914;28;45248;-68
2023/05/15 08:40:14;;;;;;;;;22.67;21.33;;;;;14.13;90.21;101304.66;5036191;28;45327;-68
2023/05/15 08:42:46;;;;;;;;;26.67;24.00;;;;;14.19;89.47;101319.47;5036242;28;46047;-68
2023/05/15 08:45:12;;;;;;;;;27.00;26.67;;;;;14.15;90.41;101307.25;5035693;27;46306;-68
2023/05/15 08:47:40;;;;;;;;;36.33;31.67;;;;;14.11;90.22;101298.50;5050810;28;45431;-69
2023/05/15 08:50:09;;;;;;;;;28.67;26.00;;;;;14.15;91.08;101309.91;5035832;27;45463;-68
2023/05/15 08:52:35;;;;;;;;;30.67;26.67;;;;;14.24;90.75;101314.94;5035994;28;45446;-69
2023/05/15 08:55:02;;;;;;;;;42.67;33.67;;;;;14.24;90.80;101320.22;5035765;28;45335;-69
2023/05/15 08:57:27;;;;;;;;;34.00;30.00;;;;;14.21;90.34;101315.03;5035766;27;45441;-69
2023/05/15 08:59:54;;;;;;;;;33.67;28.33;;;;;14.22;91.64;101316.75;5035907;28;45331;-69
2023/05/15 09:02:20;;;;;;;;;29.33;25.67;;;;;14.01;91.78;101282.00;5035931;28;45538;-69
2023/05/15 09:04:45;;;;;;;;;34.67;27.67;;;;;14.28;92.21;101317.44;5035496;27;46294;-68
2023/05/15 09:07:11;;;;;;;;;34.00;28.67;;;;;14.36;91.93;101325.19;5035660;28;45330;-68
2023/05/15 09:09:38;;;;;;;;;48.67;35.33;;;;;14.35;92.45;101318.13;5035732;28;45380;-69
2023/05/15 09:12:05;;;;;;;;;42.33;33.33;;;;;14.33;91.96;101313.78;5035948;28;45366;-68
2023/05/15 09:14:31;;;;;;;;;48.67;37.00;;;;;14.38;92.70;101323.34;5035541;28;45716;-69
2023/05/15 09:16:56;;;;;;;;;44.00;34.00;;;;;14.32;93.89;101315.59;5035426;28;45468;-70
2023/05/15 09:19:22;;;;;;;;;48.00;36.33;;;;;14.36;95.69;101322.53;5035716;28;45363;-70
2023/05/15 09:21:48;;;;;;;;;53.33;38.67;;;;;14.36;94.40;101322.53;5035744;28;45384;-69
2023/05/15 09:24:14;;;;;;;;;54.67;41.00;;;;;14.39;95.65;101332.16;5035370;28;47082;-69
2023/05/15 09:26:41;;;;;;;;;52.67;38.67;;;;;14.38;96.28;101326.00;5035395;27;45479;-69
2023/05/15 09:29:07;;;;;;;;;42.33;35.33;;;;;14.43;95.39;101331.16;5035607;28;45327;-68
2023/05/15 09:31:32;;;;;;;;;45.00;35.00;;;;;14.46;95.52;101333.69;5035624;28;45206;-69
2023/05/15 09:34:00;;;;;;;;;46.33;39.00;;;;;14.44;95.91;101323.16;5035326;28;46394;-69
2023/05/15 09:36:27;;;;;;;;;49.00;35.33;;;;;14.43;95.05;101321.41;5035144;28;45230;-69
2023/05/15 09:38:57;;;;;;;;;50.00;38.00;;;;;14.48;96.73;101334.53;5035375;28;45509;-68
2023/05/15 09:41:24;;;;;;;;;46.67;36.33;;;;;14.49;96.71;101333.59;5035555;28;45251;-69
2023/05/15 09:43:50;;;;;;;;;53.33;39.00;;;;;14.48;96.48;101326.59;5035280;27;45296;-68
2023/05/15 09:46:16;;;;;;;;;30.00;21.67;;;;;14.49;98.58;101333.59;5035213;27;45208;-69
2023/05/15 09:48:41;;;;;;;;;31.67;29.67;;;;;14.45;97.30;101339.94;5035363;27;45453;-69
2023/05/15 09:51:15;;;;;;;;;32.33;28.00;;;;;14.41;94.08;101344.44;5035368;28;45380;-69
2023/05/15 09:53:41;;;;;;;;;26.00;25.67;;;;;14.31;96.38;101342.13;5035202;27;46294;-69
2023/05/15 09:56:09;;;;;;;;;29.67;25.00;;;;;14.33;94.71;101357.03;5035156;27;45291;-69
2023/05/15 09:58:35;;;;;;;;;51.00;39.33;;;;;14.24;96.53;101349.34;5035309;27;45391;-69
2023/05/15 10:01:01;;;;;;;;;27.33;21.00;;;;;14.24;94.14;101357.31;5033885;27;45527;-70
2023/05/15 10:03:26;;;;;;;;;25.00;17.33;;;;;13.93;94.62;101311.38;5034925;28;45292;-69
2023/05/15 10:05:58;;;;;;;;;18.33;13.33;;;;;14.19;94.20;101362.75;5034971;28;45391;-69
2023/05/15 10:08:27;;;;;;;;;15.00;12.00;;;;;14.14;93.36;101347.88;5034957;28;45359;-69
2023/05/15 10:10:53;;;;;;;;;13.00;12.33;;;;;14.15;94.38;101353.13;5035095;28;45490;-69
2023/05/15 10:13:20;;;;;;;;;1.00;0.00;;;;;14.17;95.43;101355.75;5034819;28;46530;-69
2023/05/15 10:15:48;;;;;;;;;14.67;9.00;;;;;14.17;94.69;101356.59;5035001;27;45429;-69
2023/05/15 10:18:20;;;;;;;;;9.00;9.00;;;;;14.14;94.39;101359.34;5035259;27;45322;-69
2023/05/15 10:20:46;;;;;;;;;15.00;10.00;;;;;14.07;94.44;101352.47;5034946;28;45352;-69
2023/05/15 10:23:16;;;;;;;;;8.33;8.33;;;;;14.15;93.02;101352.28;5034672;28;45387;-69
2023/05/15 10:25:41;;;;;;;;;18.00;11.00;;;;;14.19;94.58;101357.44;5050252;28;45413;-69
2023/05/15 10:28:08;;;;;;;;;15.33;12.33;;;;;14.19;93.23;101359.19;5034860;27;45329;-69
2023/05/15 10:30:35;;;;;;;;;13.33;10.67;;;;;14.20;93.40;101356.53;5034854;27;45431;-69
2023/05/15 10:33:03;;;;;;;;;10.67;10.67;;;;;14.21;92.79;101354.75;5034601;27;46755;-69
2023/05/15 10:35:29;;;;;;;;;12.67;12.33;;;;;14.30;93.43;101365.06;5034191;28;45339;-69
2023/05/15 10:37:55;;;;;;;;;11.33;11.33;;;;;14.31;93.37;101361.53;5034776;28;45351;-69
2023/05/15 10:40:22;;;;;;;;;16.67;14.00;;;;;14.38;93.48;101372.81;5034909;27;45365;-69
2023/05/15 10:42:48;;;;;;;;;13.00;13.00;;;;;14.42;90.92;101354.13;5034384;28;45593;-69
2023/05/15 10:45:13;;;;;;;;;14.00;12.00;;;;;14.40;90.90;101363.88;5034398;28;45225;-70
2023/05/15 10:47:41;;;;;;;;;17.00;13.33;;;;;14.47;90.43;101366.38;5034521;28;45633;-69
2023/05/15 10:50:07;;;;;;;;;14.75;8.50;;;;;14.44;89.88;101370.00;5034606;28;45449;-69
2023/05/15 10:52:34;;;;;;;;;10.00;8.25;;;;;14.42;89.61;101370.03;5034290;28;46211;-69
2023/05/15 10:55:00;;;;;;;;;8.00;8.00;;;;;14.42;89.11;101362.09;5034167;28;45501;-69
2023/05/15 10:57:28;;;;;;;;;11.50;9.50;;;;;14.45;89.29;101356.69;5034501;27;45364;-69
2023/05/15 10:59:54;;;;;;;;;7.25;7.25;;;;;14.33;88.98;101330.53;5034379;28;45331;-69
2023/05/15 11:02:28;;;;;;;;;13.00;8.00;;;;;14.48;88.21;101363.69;5033839;28;46600;-69
2023/05/15 11:05:00;;;;;;;;;9.50;6.75;;;;;14.57;88.94;101381.09;5034251;27;45325;-68
2023/05/15 11:07:27;;;;;;;;;5.00;4.75;;;;;14.49;88.14;101375.16;5034356;28;45307;-69